Time;durP1;ratioP1;P1;durP2;ratioP2;P2;SDS_P1;SDS_P2;PMS_P1;PMS_P2;Temp;Humidity;BMP_temperature;BMP_pressure;BME280_temperature;BME280_humidity;BME280_pressure;Samples;Min_cycle;Max_cycle;Signal;HPM_P1;HPM_P2
2023/03/14 05:14:47;;;;;;;19.67;11.20;;;;;;;3.80;100.00;99217.78;5573052;32;187373;-83
2023/03/14 05:17:52;;;;;;;18.98;10.73;;;;;;;3.87;100.00;99210.53;5560246;32;33656;-83
2023/03/14 05:20:55;;;;;;;16.87;10.90;;;;;;;4.03;100.00;99208.13;5560150;32;33868;-83
2023/03/14 05:23:59;;;;;;;16.23;9.38;;;;;;;4.12;100.00;99201.63;5554230;32;35855;-83
2023/03/14 05:27:04;;;;;;;20.00;10.50;;;;;;;4.34;98.74;99209.44;5547937;32;34182;-83
2023/03/14 05:30:09;;;;;;;20.08;9.80;;;;;;;4.44;99.35;99204.66;5546233;32;34582;-83
2023/03/14 05:33:13;;;;;;;15.18;10.00;;;;;;;4.66;96.58;99211.56;5546003;32;35320;-83
2023/03/14 05:36:16;;;;;;;16.75;9.63;;;;;;;4.96;93.99;99208.50;5547528;32;33657;-83
2023/03/14 05:39:19;;;;;;;16.83;9.98;;;;;;;5.19;93.27;99210.06;5550846;32;34552;-83
2023/03/14 05:42:22;;;;;;;15.98;10.00;;;;;;;5.68;87.36;99210.47;5548058;32;34100;-83
2023/03/14 05:45:25;;;;;;;17.45;10.40;;;;;;;6.15;85.00;99196.81;5548299;32;34057;-83
2023/03/14 05:48:29;;;;;;;16.62;9.98;;;;;;;6.45;82.95;99198.78;5546318;32;34783;-83
2023/03/14 05:51:32;;;;;;;17.08;9.07;;;;;;;6.77;82.20;99195.41;5546748;32;34078;-83
2023/03/14 05:54:35;;;;;;;15.68;10.25;;;;;;;7.03;77.53;99200.22;5547212;32;32730;-83
2023/03/14 05:57:38;;;;;;;15.88;9.32;;;;;;;7.39;74.41;99186.78;5546754;32;33635;-83
2023/03/14 06:00:44;;;;;;;14.05;9.80;;;;;;;7.68;72.20;99197.50;5547107;32;33728;-83
2023/03/14 06:03:48;;;;;;;16.77;10.00;;;;;;;7.89;71.45;99196.38;5547986;32;34031;-83
2023/03/14 06:06:51;;;;;;;18.42;9.40;;;;;;;8.20;69.81;99195.44;5547992;32;35095;-83
2023/03/14 06:09:55;;;;;;;15.93;9.20;;;;;;;8.56;69.29;99203.91;5547747;32;34014;-83
2023/03/14 06:12:58;;;;;;;16.45;9.85;;;;;;;8.81;65.27;99205.09;5546220;32;34115;-83
2023/03/14 06:16:01;;;;;;;16.45;8.73;;;;;;;9.11;64.11;99206.75;5546036;32;34319;-83
2023/03/14 06:19:04;;;;;;;14.75;8.30;;;;;;;8.94;62.83;99196.41;5546448;32;33844;-84
2023/03/14 06:22:07;;;;;;;13.98;8.13;;;;;;;9.94;59.05;99194.47;5545396;32;34595;-83
2023/03/14 06:25:11;;;;;;;14.68;8.65;;;;;;;11.56;53.56;99204.62;5539329;32;33777;-84
2023/03/14 06:28:15;;;;;;;13.40;8.38;;;;;;;12.17;49.63;99196.75;5540780;32;35221;-84
2023/03/14 06:31:17;;;;;;;13.38;9.05;;;;;;;11.49;50.43;99200.72;5533966;32;32916;-83
2023/03/14 06:34:21;;;;;;;13.38;8.65;;;;;;;10.90;52.54;99204.88;5535052;32;34664;-83
2023/03/14 06:37:24;;;;;;;12.10;8.30;;;;;;;10.66;53.67;99202.97;5534435;32;34048;-84
2023/03/14 06:40:30;;;;;;;13.00;8.27;;;;;;;10.33;54.75;99185.75;5535197;32;33853;-84
2023/03/14 06:43:33;;;;;;;14.40;8.50;;;;;;;10.19;54.99;99191.97;5534204;32;34751;-84
2023/03/14 06:46:37;;;;;;;14.57;8.55;;;;;;;10.02;55.64;99196.62;5534203;32;35101;-84
2023/03/14 06:49:40;;;;;;;14.18;8.35;;;;;;;10.00;55.78;99187.91;5542943;32;34134;-83
2023/03/14 06:52:47;;;;;;;13.40;8.82;;;;;;;9.88;56.52;99186.06;5542175;32;35164;-84
2023/03/14 06:55:51;;;;;;;24.83;8.85;;;;;;;9.77;56.83;99195.59;5538508;32;34184;-85
2023/03/14 06:58:54;;;;;;;16.50;8.93;;;;;;;9.68;57.56;99189.09;5537431;32;34568;-84
2023/03/14 07:01:58;;;;;;;15.55;9.15;;;;;;;9.80;57.46;99182.12;5542340;32;34318;-88
2023/03/14 07:05:00;;;;;;;13.85;8.38;;;;;;;9.75;57.67;99178.91;5549238;32;34555;-89
2023/03/14 07:08:07;;;;;;;17.37;9.20;;;;;;;9.82;57.72;99182.84;5552802;32;34236;-89
2023/03/14 07:11:11;;;;;;;13.20;8.65;;;;;;;9.97;57.50;99182.81;5532790;32;33946;-86
2023/03/14 07:14:14;;;;;;;14.07;8.07;;;;;;;9.89;57.71;99179.81;5532999;32;34148;-85
2023/03/14 07:17:17;;;;;;;16.12;9.57;;;;;;;10.09;56.95;99184.66;5540086;32;34077;-85
2023/03/14 07:20:20;;;;;;;15.23;8.38;;;;;;;10.41;56.56;99174.62;5542340;32;34119;-85
2023/03/14 07:23:23;;;;;;;13.88;9.07;;;;;;;10.77;54.91;99183.69;5547279;32;34331;-86
2023/03/14 07:26:26;;;;;;;16.87;9.02;;;;;;;10.96;54.42;99182.38;5538775;32;34767;-85
2023/03/14 07:29:30;;;;;;;17.15;9.10;;;;;;;11.08;54.20;99178.00;5536374;32;34973;-84
2023/03/14 07:32:33;;;;;;;13.40;8.05;;;;;;;10.88;54.62;99174.97;5536432;32;34829;-84
2023/03/14 07:35:37;;;;;;;13.10;9.25;;;;;;;11.66;53.05;99172.94;5534032;32;33820;-84
2023/03/14 07:38:40;;;;;;;18.37;8.90;;;;;;;12.40;50.20;99169.25;5538297;32;34132;-84
2023/03/14 07:41:43;;;;;;;18.17;9.52;;;;;;;12.72;49.43;99165.03;5535282;32;35755;-84
2023/03/14 07:44:53;;;;;;;13.30;8.75;;;;;;;13.51;47.20;99162.44;5535733;32;34314;-84
2023/03/14 07:47:57;;;;;;;12.63;8.27;;;;;;;14.54;44.92;99157.50;5552664;32;34367;-85
2023/03/14 07:51:00;;;;;;;19.52;8.82;;;;;;;15.67;42.27;99160.13;5558582;32;35126;-84
2023/03/14 07:54:03;;;;;;;13.93;8.45;;;;;;;15.49;42.19;99146.63;5547533;32;33694;-84
2023/03/14 07:57:06;;;;;;;14.68;8.45;;;;;;;14.53;43.93;99153.13;5552337;32;34197;-85
2023/03/14 08:00:10;;;;;;;12.50;8.57;;;;;;;14.09;45.50;99146.09;5538936;32;35114;-85
2023/03/14 08:03:16;;;;;;;13.18;8.73;;;;;;;15.05;43.61;99150.41;5541405;32;33733;-83
2023/03/14 08:06:19;;;;;;;18.92;8.52;;;;;;;15.51;42.65;99144.62;5534108;32;34570;-83
2023/03/14 08:09:22;;;;;;;15.63;9.90;;;;;;;15.35;42.53;99145.19;5532831;32;34719;-86
2023/03/14 08:12:25;;;;;;;14.32;8.63;;;;;;;15.76;41.89;99137.88;5537445;32;33662;-87
2023/03/14 08:15:29;;;;;;;13.73;8.63;;;;;;;16.33;41.08;99127.47;5542798;32;33677;-86
2023/03/14 08:18:33;;;;;;;16.77;9.40;;;;;;;15.88;41.72;99124.37;5532577;32;33753;-85
2023/03/14 08:21:35;;;;;;;18.25;8.80;;;;;;;15.52;42.59;99122.28;5552899;32;33860;-86
2023/03/14 08:24:39;;;;;;;18.17;9.57;;;;;;;15.58;43.03;99112.84;5549408;32;34111;-87
2023/03/14 08:27:42;;;;;;;14.07;8.90;;;;;;;16.26;41.78;99116.50;5538885;32;34227;-87
2023/03/14 08:30:46;;;;;;;12.80;8.38;;;;;;;16.60;40.50;99118.63;5542570;32;34248;-87
2023/03/14 08:33:51;;;;;;;16.77;8.63;;;;;;;17.38;39.86;99112.09;5541576;32;34691;-86
2023/03/14 08:36:56;;;;;;;13.40;7.97;;;;;;;19.31;35.76;99110.50;5534819;32;34000;-85
2023/03/14 08:39:59;;;;;;;12.65;8.13;;;;;;;19.62;34.92;99106.34;5547461;32;34142;-86
2023/03/14 08:43:02;;;;;;;16.87;8.65;;;;;;;20.46;33.28;99108.84;5535046;32;34158;-86
2023/03/14 08:46:05;;;;;;;13.15;8.07;;;;;;;22.24;30.74;99106.69;5537629;32;34083;-85
2023/03/14 08:49:08;;;;;;;15.40;7.72;;;;;;;22.42;30.41;99106.34;5535915;32;34795;-87
2023/03/14 08:52:11;;;;;;;14.30;7.65;;;;;;;23.03;29.60;99097.19;5553324;32;33764;-86
2023/03/14 08:55:14;;;;;;;15.32;8.15;;;;;;;20.60;32.61;99085.75;5545649;32;34340;-86
2023/03/14 08:58:17;;;;;;;19.92;7.80;;;;;;;20.77;32.59;99080.28;5533780;32;34211;-86
2023/03/14 09:01:23;;;;;;;16.70;7.47;;;;;;;20.92;32.62;99071.50;5532015;32;33723;-86
2023/03/14 09:04:26;;;;;;;12.65;6.70;;;;;;;20.58;33.05;99066.22;5532139;32;33685;-86
2023/03/14 09:07:29;;;;;;;13.88;6.50;;;;;;;19.59;34.29;99058.25;5543682;32;35205;-88
2023/03/14 09:10:32;;;;;;;15.30;6.75;;;;;;;18.94;35.65;99044.50;5526725;32;34092;-91
2023/03/14 09:13:36;;;;;;;11.95;5.95;;;;;;;19.13;35.46;99051.50;5517520;32;34137;-89
2023/03/14 09:16:38;;;;;;;14.05;6.15;;;;;;;19.30;35.37;99056.91;5530812;32;34370;-88
2023/03/14 09:19:41;;;;;;;10.63;5.53;;;;;;;19.35;36.97;99057.22;5532966;32;34156;-86
2023/03/14 09:22:44;;;;;;;11.50;6.20;;;;;;;18.58;35.86;99051.78;5531777;32;33896;-86
2023/03/14 09:25:47;;;;;;;9.00;6.20;;;;;;;18.10;36.99;99045.97;5532130;32;33880;-86
2023/03/14 09:28:49;;;;;;;10.90;5.82;;;;;;;18.44;36.91;99042.50;5531603;32;33977;-86
2023/03/14 09:31:52;;;;;;;10.63;5.50;;;;;;;18.23;37.44;99042.88;5529700;32;33939;-86
2023/03/14 09:34:56;;;;;;;10.98;5.70;;;;;;;18.44;37.18;99025.53;5531712;32;35453;-86
2023/03/14 09:37:58;;;;;;;10.98;5.57;;;;;;;18.89;36.32;99014.59;5533777;32;34133;-86
2023/03/14 09:41:03;;;;;;;18.02;6.10;;;;;;;18.70;36.18;99022.78;5530856;32;34800;-85
2023/03/14 09:44:16;;;;;;;8.45;5.15;;;;;;;19.01;36.16;99021.34;5531316;32;34467;-84
2023/03/14 09:47:19;;;;;;;12.63;5.60;;;;;;;18.93;35.79;99018.66;5530216;32;33697;-84
2023/03/14 09:50:23;;;;;;;10.68;6.15;;;;;;;19.02;35.87;99016.81;5531599;32;34893;-84
2023/03/14 09:53:39;;;;;;;9.10;5.80;;;;;;;19.54;35.71;99004.97;5530695;32;36296;-83
2023/03/14 09:56:42;;;;;;;7.75;5.60;;;;;;;19.50;35.13;98993.72;5533168;32;34128;-83
2023/03/14 09:59:46;;;;;;;8.75;5.28;;;;;;;18.79;37.09;98983.38;5541891;32;33947;-83
2023/03/14 10:02:53;;;;;;;10.55;5.75;;;;;;;18.84;36.87;98994.47;5546317;32;35120;-83
2023/03/14 10:05:56;;;;;;;16.87;5.95;;;;;;;19.08;36.34;98973.19;5545600;32;35153;-83
2023/03/14 10:08:59;;;;;;;9.77;5.50;;;;;;;19.15;36.21;98963.47;5534777;32;34053;-84
2023/03/14 10:12:02;;;;;;;11.50;5.40;;;;;;;19.11;36.79;98952.22;5534665;32;33877;-82
2023/03/14 10:15:17;;;;;;;12.43;5.65;;;;;;;19.10;37.09;98947.84;5534202;32;34062;-84
2023/03/14 10:18:23;;;;;;;12.27;5.78;;;;;;;19.56;36.33;98942.97;5533451;32;34164;-84
2023/03/14 10:21:30;;;;;;;13.32;6.10;;;;;;;18.76;37.28;98945.25;5533761;32;34046;-84
2023/03/14 10:24:34;;;;;;;13.48;5.37;;;;;;;18.36;38.56;98923.50;5533533;32;34541;-83
2023/03/14 10:27:37;;;;;;;13.45;5.60;;;;;;;19.25;37.71;98909.53;5533881;32;33910;-83
2023/03/14 10:30:45;;;;;;;9.02;5.40;;;;;;;19.93;36.47;98903.87;5533270;32;36303;-83
2023/03/14 10:34:02;;;;;;;6.87;3.50;;;;;;;20.01;35.90;98903.87;5533586;32;34419;-83
2023/03/14 10:37:16;;;;;;;9.05;2.67;;;;;;;20.57;34.25;98894.00;5534026;32;33751;-83
2023/03/14 10:40:27;;;;;;;5.40;2.50;;;;;;;20.93;33.37;98895.31;5539943;32;34264;-88
2023/03/14 10:43:35;;;;;;;7.18;2.20;;;;;;;20.93;32.96;98879.13;5539266;32;34028;-84
2023/03/14 10:46:38;;;;;;;3.65;1.98;;;;;;;21.19;32.94;98883.28;5534705;32;34178;-83
2023/03/14 10:50:14;;;;;;;8.15;2.17;;;;;;;21.39;32.14;98895.25;5534443;32;34729;-84
2023/03/14 10:53:18;;;;;;;8.00;2.25;;;;;;;20.83;33.10;98873.97;5534335;32;34487;-83
2023/03/14 10:56:23;;;;;;;8.25;2.30;;;;;;;21.09;32.90;98884.41;5534784;32;34303;-83
2023/03/14 10:59:36;;;;;;;6.00;2.25;;;;;;;21.16;32.76;98875.59;5534035;32;35327;-84
2023/03/14 11:02:39;;;;;;;7.55;2.05;;;;;;;21.40;32.25;98877.19;5535909;32;34593;-85
2023/03/14 11:06:06;;;;;;;6.10;2.37;;;;;;;21.24;32.43;98868.25;5536467;32;34796;-85
2023/03/14 11:09:20;;;;;;;3.45;2.00;;;;;;;21.41;32.15;98854.59;5529452;32;34840;-85
2023/03/14 11:12:42;;;;;;;6.07;2.15;;;;;;;21.83;31.47;98852.34;5530802;32;35860;-85
2023/03/14 11:15:57;;;;;;;;;;;;;;;22.76;30.04;98845.50;5529726;32;34162;-84
2023/03/14 11:19:22;;;;;;;12.13;2.50;;;;;;;23.21;29.69;98844.41;5536704;32;34099;-83
2023/03/14 11:22:50;;;;;;;5.62;2.10;;;;;;;22.10;30.32;98833.75;5534603;32;34317;-84
2023/03/14 11:25:53;;;;;;;8.57;2.70;;;;;;;21.48;31.61;98831.25;5533440;32;34725;-83
2023/03/14 11:29:13;;;;;;;4.97;2.12;;;;;;;20.65;33.25;98820.37;5534952;32;33945;-83
2023/03/14 11:32:37;;;;;;;4.65;2.25;;;;;;;20.70;33.31;98816.12;5534382;32;34391;-83
2023/03/14 11:35:53;;;;;;;6.10;2.58;;;;;;;21.19;32.82;98807.81;5534533;32;34262;-84
2023/03/14 11:38:57;;;;;;;3.00;1.95;;;;;;;21.70;32.52;98790.91;5533439;32;34505;-83
2023/03/14 11:42:01;;;;;;;5.68;2.35;;;;;;;22.30;31.48;98793.47;5537391;32;33768;-83
2023/03/14 11:45:18;;;;;;;5.25;2.15;;;;;;;21.99;31.48;98793.75;5533236;32;34070;-83
2023/03/14 11:48:36;;;;;;;5.70;1.85;;;;;;;21.28;32.72;98783.25;5532639;32;34510;-85
2023/03/14 11:51:44;;;;;;;4.72;1.92;;;;;;;20.62;33.64;98766.87;5525491;32;33533;-85
2023/03/14 11:54:53;;;;;;;5.57;1.83;;;;;;;20.85;33.49;98769.53;5534437;32;34265;-84
2023/03/14 11:58:01;;;;;;;9.83;2.97;;;;;;;21.11;33.01;98769.13;5536888;32;33818;-85
2023/03/14 12:01:11;;;;;;;11.85;1.85;;;;;;;20.94;32.83;98763.06;5535687;32;34045;-85
2023/03/14 12:04:37;;;;;;;4.57;1.75;;;;;;;20.77;33.26;98758.81;5535502;32;34069;-84
2023/03/14 12:07:46;;;;;;;4.85;1.65;;;;;;;20.38;33.98;98753.44;5533976;32;33685;-85
2023/03/14 12:10:53;;;;;;;2.90;1.60;;;;;;;20.16;34.06;98750.53;5534092;32;33834;-84
2023/03/14 12:13:56;;;;;;;3.22;1.83;;;;;;;20.21;34.40;98744.59;5534279;32;33763;-85
2023/03/14 12:17:18;;;;;;;4.43;1.85;;;;;;;20.02;34.48;98737.84;5536028;32;33789;-85
2023/03/14 12:20:24;;;;;;;3.27;1.80;;;;;;;20.33;34.17;98737.78;5543480;32;34433;-85
2023/03/14 12:23:34;;;;;;;5.47;1.60;;;;;;;20.24;33.69;98732.66;5533747;32;34316;-85
2023/03/14 12:26:58;;;;;;;4.50;2.03;;;;;;;20.18;34.01;98731.53;5544167;32;34140;-86
2023/03/14 12:30:17;;;;;;;1.70;1.52;;;;;;;19.98;33.93;98721.22;5534552;32;33986;-85
2023/03/14 12:33:31;;;;;;;2.67;1.48;;;;;;;19.65;34.68;98716.84;5532752;32;33893;-86
2023/03/14 12:37:09;;;;;;;6.18;1.87;;;;;;;19.79;34.26;98717.09;5536950;32;34816;-84
2023/03/14 12:40:32;;;;;;;6.53;1.65;;;;;;;19.63;34.62;98705.44;5539177;32;34339;-86
2023/03/14 12:43:37;;;;;;;3.83;2.15;;;;;;;19.65;34.80;98710.63;5523695;32;34757;-86
2023/03/14 12:46:39;;;;;;;4.95;2.05;;;;;;;19.82;34.83;98697.06;5522973;32;33642;-86
2023/03/14 12:49:43;;;;;;;6.62;1.70;;;;;;;19.63;35.05;98699.19;5530961;32;33865;-86
2023/03/14 12:53:07;;;;;;;4.82;1.70;;;;;;;19.67;35.48;98687.09;5536545;32;34455;-86
2023/03/14 12:56:19;;;;;;;8.40;2.17;;;;;;;19.35;35.77;98678.16;5529968;32;34711;-86
2023/03/14 12:59:28;;;;;;;2.65;1.85;;;;;;;19.37;35.69;98678.84;5521637;32;34321;-86
2023/03/14 13:02:44;;;;;;;4.82;1.80;;;;;;;19.18;35.52;98682.78;5521063;32;33790;-87
2023/03/14 13:06:03;;;;;;;6.47;2.10;;;;;;;19.24;35.59;98682.94;5526214;32;34300;-86
2023/03/14 13:09:29;;;;;;;3.55;1.80;;;;;;;19.06;36.45;98677.78;5531002;32;33754;-86
2023/03/14 13:12:39;;;;;;;3.60;2.10;;;;;;;18.95;37.64;98676.28;5526118;32;34330;-83
2023/03/14 13:15:46;;;;;;;4.35;1.60;;;;;;;18.90;37.56;98670.56;5533751;32;34495;-88
2023/03/14 13:18:58;;;;;;;4.60;2.20;;;;;;;18.96;36.80;98669.06;5524098;32;34300;-87
2023/03/14 13:22:05;;;;;;;3.83;2.20;;;;;;;18.80;37.25;98668.09;5525575;32;34107;-85
2023/03/14 13:25:10;;;;;;;4.25;2.17;;;;;;;18.75;37.49;98681.19;5532477;32;34105;-86
2023/03/14 13:28:14;;;;;;;4.28;2.35;;;;;;;18.74;37.22;98682.19;5531156;32;33925;-86
2023/03/14 13:31:24;;;;;;;12.65;2.65;;;;;;;18.78;36.77;98686.22;5533471;32;34246;-86
2023/03/14 13:34:33;;;;;;;4.15;2.10;;;;;;;18.63;37.14;98701.34;5529495;32;34853;-86
2023/03/14 13:37:39;;;;;;;3.45;2.00;;;;;;;18.53;37.55;98698.84;5532354;32;35215;-88
2023/03/14 13:40:44;;;;;;;5.05;1.95;;;;;;;18.41;37.80;98703.72;5527590;32;34266;-87
2023/03/14 13:43:48;;;;;;;5.40;1.98;;;;;;;18.35;38.08;98715.13;5531818;32;34103;-87
2023/03/14 13:46:51;;;;;;;3.92;2.22;;;;;;;18.38;38.19;98702.22;5531469;32;34647;-87
2023/03/14 13:49:57;;;;;;;5.20;2.70;;;;;;;18.36;38.62;98706.88;5534864;32;33985;-87
2023/03/14 13:53:02;;;;;;;3.67;2.12;;;;;;;18.44;38.20;98693.50;5532006;32;33860;-87
2023/03/14 13:56:09;;;;;;;5.22;2.60;;;;;;;18.41;38.48;98703.72;5533999;32;35245;-86
2023/03/14 13:59:25;;;;;;;4.70;2.12;;;;;;;18.40;38.25;98708.25;5534702;32;33920;-83
2023/03/14 14:02:30;;;;;;;4.90;2.25;;;;;;;18.44;38.24;98703.38;5534202;32;34179;-83
2023/03/14 14:05:37;;;;;;;2.58;2.17;;;;;;;18.53;38.05;98707.75;5535667;32;34009;-84
2023/03/14 14:08:41;;;;;;;4.50;2.25;;;;;;;18.53;38.23;98713.13;5536091;32;34477;-84
2023/03/14 14:12:12;;;;;;;2.53;2.20;;;;;;;18.68;37.73;98704.34;5534468;32;33922;-83
2023/03/14 14:15:26;;;;;;;3.83;2.20;;;;;;;18.73;37.50;98696.63;5537355;32;34088;-83
2023/03/14 14:18:32;;;;;;;3.83;2.30;;;;;;;18.74;37.39;98694.81;5543608;32;35280;-87
2023/03/14 14:21:35;;;;;;;4.07;2.28;;;;;;;18.61;37.64;98693.47;5542263;32;34152;-88
2023/03/14 14:24:39;;;;;;;6.05;2.53;;;;;;;18.77;37.30;98695.28;5538968;32;34290;-85
2023/03/14 14:27:46;;;;;;;3.30;2.22;;;;;;;18.85;37.18;98689.03;5531363;32;35280;-85
2023/03/14 14:31:18;;;;;;;2.72;2.15;;;;;;;18.82;37.18;98684.84;5536348;32;33966;-84
2023/03/14 14:34:20;;;;;;;5.65;2.42;;;;;;;18.91;36.59;98695.59;5538310;32;33945;-85
2023/03/14 14:37:29;;;;;;;5.82;2.15;;;;;;;18.82;36.67;98692.91;5539140;32;34428;-84
2023/03/14 14:40:33;;;;;;;4.18;2.30;;;;;;;18.73;36.38;98691.25;5533694;32;34033;-84
2023/03/14 14:43:40;;;;;;;5.75;2.20;;;;;;;18.69;36.68;98688.09;5535439;32;34166;-84
2023/03/14 14:46:42;;;;;;;5.70;2.85;;;;;;;18.74;36.32;98690.25;5532710;32;33981;-84
2023/03/14 14:49:47;;;;;;;7.70;2.67;;;;;;;18.69;36.69;98690.78;5534868;32;34458;-85
2023/03/14 14:52:59;;;;;;;5.30;2.37;;;;;;;18.75;36.81;98688.41;5531701;32;33786;-86
2023/03/14 14:56:25;;;;;;;8.35;2.67;;;;;;;18.74;36.72;98679.50;5535013;32;34205;-84
2023/03/14 14:59:31;;;;;;;5.30;2.60;;;;;;;18.82;36.79;98684.84;5533555;32;33587;-85
2023/03/14 15:02:45;;;;;;;5.53;2.42;;;;;;;18.76;36.94;98684.72;5534018;32;34306;-85
2023/03/14 15:05:48;;;;;;;8.68;2.75;;;;;;;18.67;37.28;98690.13;5534568;32;34178;-84
2023/03/14 15:08:52;;;;;;;4.97;3.10;;;;;;;18.69;37.55;98684.56;5533686;32;33994;-84
2023/03/14 15:11:57;;;;;;;5.35;3.25;;;;;;;18.55;37.91;98691.44;5533615;32;34151;-84
2023/03/14 15:14:59;;;;;;;11.12;3.55;;;;;;;18.31;38.31;98688.63;5538520;32;33830;-84
2023/03/14 15:18:02;;;;;;;9.23;4.60;;;;;;;18.14;39.27;98693.16;5542606;32;34154;-84
2023/03/14 15:21:05;;;;;;;10.02;4.43;;;;;;;17.95;40.39;98699.63;5534145;32;34148;-84
2023/03/14 15:24:09;;;;;;;8.82;4.40;;;;;;;17.96;40.71;98706.69;5534629;32;33951;-85
2023/03/14 15:27:15;;;;;;;6.68;4.03;;;;;;;17.95;40.71;98715.72;5535115;32;33741;-89
2023/03/14 15:30:18;;;;;;;11.15;4.70;;;;;;;17.72;41.31;98716.38;5534396;32;33766;-88
2023/03/14 15:33:25;;;;;;;11.12;4.20;;;;;;;17.58;41.04;98720.50;5535283;32;33928;-86
2023/03/14 15:36:31;;;;;;;9.93;4.97;;;;;;;17.51;41.51;98736.37;5535568;32;33571;-84
2023/03/14 15:39:35;;;;;;;12.82;4.45;;;;;;;17.56;41.63;98722.53;5539407;32;33983;-84
2023/03/14 15:42:37;;;;;;;7.80;4.47;;;;;;;17.52;41.59;98730.00;5543925;32;34174;-84
2023/03/14 15:45:41;;;;;;;12.05;5.20;;;;;;;17.43;41.87;98724.78;5532572;32;33886;-84
2023/03/14 15:48:45;;;;;;;11.60;5.12;;;;;;;17.30;41.79;98744.00;5532554;32;33746;-84
2023/03/14 15:51:48;;;;;;;7.03;3.05;;;;;;;17.20;42.38;98770.94;5532377;32;34894;-84
2023/03/14 15:54:51;;;;;;;4.85;2.40;;;;;;;17.13;46.85;98781.44;5533333;32;34280;-85
2023/03/14 15:57:54;;;;;;;7.95;2.42;;;;;;;16.30;57.23;98783.44;5535154;32;34749;-84
2023/03/14 16:00:56;;;;;;;5.37;2.20;;;;;;;15.57;66.56;98804.66;5540801;32;34249;-84
2023/03/14 16:04:02;;;;;;;2.90;1.80;;;;;;;15.21;70.28;98800.03;5541076;32;34165;-84
2023/03/14 16:07:04;;;;;;;5.18;2.05;;;;;;;15.09;72.61;98807.34;5540418;32;34244;-84
2023/03/14 16:10:11;;;;;;;5.20;2.17;;;;;;;14.67;77.19;98807.66;5540441;32;34173;-84
2023/03/14 16:13:14;;;;;;;3.62;2.00;;;;;;;14.41;81.56;98813.56;5533819;32;34939;-84
2023/03/14 16:16:17;;;;;;;4.00;2.05;;;;;;;14.10;87.60;98811.84;5532887;32;35397;-84
2023/03/14 16:19:20;;;;;;;5.50;2.37;;;;;;;13.92;91.65;98808.16;5533155;32;34237;-84
